CAL418 RCTP-RCFN
Flight info
| Callsign | CAL418 |
|---|---|
| Flight time | 0h 40m |
| Altitude | 20000 |
| Route | TINHO B591 GID |
| Aircraft | B738/M-V/N |
Departure
| Time | 2026-05-06 13:54 |
|---|---|
| Airport | Taiwan Taoyuan International Airport (RCTP) |
Arrival
| Time | 2026-05-06 14:34 |
|---|---|
| Airport | Taitung Airport (RCFN) |
| Time | Latitude | Longitude | Altitude | Speed | Heading |
|---|---|---|---|---|---|
| 2026-05-06 13:37 | 25.07891 | 121.23039 | 116 ft | 0 kts | 140° |
| 2026-05-06 13:45 | 25.07908 | 121.23023 | 116 ft | 2 kts | 140° |
| 2026-05-06 13:45 | 25.07920 | 121.23012 | 116 ft | 2 kts | 140° |
| 2026-05-06 13:46 | 25.07931 | 121.23001 | 116 ft | 2 kts | 140° |
| 2026-05-06 13:46 | 25.07943 | 121.22991 | 116 ft | 2 kts | 140° |
| 2026-05-06 13:46 | 25.07954 | 121.22980 | 116 ft | 2 kts | 140° |
| 2026-05-06 13:46 | 25.07967 | 121.22971 | 116 ft | 2 kts | 171° |
| 2026-05-06 13:47 | 25.07981 | 121.22973 | 116 ft | 2 kts | 203° |
| 2026-05-06 13:47 | 25.07990 | 121.22979 | 116 ft | 0 kts | 227° |
| 2026-05-06 13:47 | 25.07995 | 121.22985 | 116 ft | 0 kts | 230° |
| 2026-05-06 13:49 | 25.07988 | 121.22972 | 116 ft | 4 kts | 251° |
| 2026-05-06 13:49 | 25.08003 | 121.22941 | 116 ft | 7 kts | 322° |
| 2026-05-06 13:50 | 25.08030 | 121.22880 | 116 ft | 12 kts | 258° |
| 2026-05-06 13:50 | 25.07963 | 121.22781 | 116 ft | 20 kts | 229° |
| 2026-05-06 13:50 | 25.07862 | 121.22652 | 116 ft | 22 kts | 229° |
| 2026-05-06 13:50 | 25.07759 | 121.22521 | 116 ft | 22 kts | 229° |
| 2026-05-06 13:51 | 25.07654 | 121.22385 | 116 ft | 23 kts | 230° |
| 2026-05-06 13:51 | 25.07550 | 121.22254 | 116 ft | 22 kts | 229° |
| 2026-05-06 13:51 | 25.07450 | 121.22128 | 116 ft | 21 kts | 227° |
| 2026-05-06 13:51 | 25.07356 | 121.22008 | 116 ft | 20 kts | 228° |
| 2026-05-06 13:52 | 25.07265 | 121.21892 | 116 ft | 19 kts | 230° |
| 2026-05-06 13:52 | 25.07184 | 121.21789 | 116 ft | 12 kts | 229° |
| 2026-05-06 13:52 | 25.07173 | 121.21731 | 116 ft | 7 kts | 295° |
| 2026-05-06 13:52 | 25.07220 | 121.21675 | 116 ft | 12 kts | 317° |
| 2026-05-06 13:53 | 25.07280 | 121.21625 | 116 ft | 7 kts | 343° |
| 2026-05-06 13:53 | 25.07344 | 121.21667 | 116 ft | 20 kts | 47° |
| 2026-05-06 13:53 | 25.07626 | 121.22027 | 116 ft | 103 kts | 49° |
| 2026-05-06 13:53 | 25.08251 | 121.22825 | 149 ft | 167 kts | 50° |
| 2026-05-06 13:54 | 25.09016 | 121.23776 | 992 ft | 168 kts | 49° |
| 2026-05-06 13:54 | 25.09781 | 121.24738 | 1846 ft | 175 kts | 51° |
| 2026-05-06 13:54 | 25.10605 | 121.25801 | 2463 ft | 194 kts | 51° |
| 2026-05-06 13:54 | 25.11527 | 121.26987 | 3138 ft | 212 kts | 51° |
| 2026-05-06 13:55 | 25.12516 | 121.28249 | 3811 ft | 229 kts | 50° |
| 2026-05-06 13:55 | 25.13589 | 121.29618 | 4513 ft | 245 kts | 50° |
| 2026-05-06 13:55 | 25.14737 | 121.31104 | 5236 ft | 261 kts | 50° |
| 2026-05-06 13:55 | 25.15946 | 121.32684 | 5912 ft | 279 kts | 50° |
| 2026-05-06 13:56 | 25.17213 | 121.34334 | 6737 ft | 290 kts | 50° |
| 2026-05-06 13:56 | 25.18508 | 121.36015 | 7666 ft | 295 kts | 50° |
| 2026-05-06 13:56 | 25.19848 | 121.37753 | 8556 ft | 302 kts | 49° |
| 2026-05-06 13:56 | 25.21208 | 121.39521 | 9480 ft | 306 kts | 49° |
| 2026-05-06 13:57 | 25.22593 | 121.41323 | 10393 ft | 310 kts | 49° |
| 2026-05-06 13:57 | 25.24016 | 121.43173 | 11024 ft | 324 kts | 49° |
| 2026-05-06 13:57 | 25.25502 | 121.45104 | 11618 ft | 338 kts | 49° |
| 2026-05-06 13:57 | 25.27051 | 121.47117 | 12168 ft | 352 kts | 49° |
| 2026-05-06 13:58 | 25.28659 | 121.49244 | 12664 ft | 366 kts | 52° |
| 2026-05-06 13:58 | 25.29968 | 121.51704 | 13228 ft | 378 kts | 69° |
| 2026-05-06 13:58 | 25.30441 | 121.54557 | 13980 ft | 383 kts | 89° |
| 2026-05-06 13:58 | 25.29985 | 121.57430 | 14649 ft | 389 kts | 109° |
| 2026-05-06 13:59 | 25.28762 | 121.60088 | 15331 ft | 393 kts | 123° |
| 2026-05-06 13:59 | 25.26948 | 121.62338 | 15957 ft | 398 kts | 142° |
| 2026-05-06 13:59 | 25.24568 | 121.63886 | 16631 ft | 400 kts | 155° |
| 2026-05-06 13:59 | 25.21978 | 121.65087 | 17230 ft | 405 kts | 160° |
| 2026-05-06 14:00 | 25.19334 | 121.66164 | 17904 ft | 408 kts | 161° |
| 2026-05-06 14:00 | 25.16656 | 121.67230 | 18593 ft | 410 kts | 161° |
| 2026-05-06 14:00 | 25.13959 | 121.68327 | 19236 ft | 414 kts | 161° |
| 2026-05-06 14:00 | 25.11276 | 121.69453 | 19794 ft | 418 kts | 160° |
| 2026-05-06 14:01 | 25.08550 | 121.70624 | 19956 ft | 420 kts | 160° |
| 2026-05-06 14:01 | 25.05845 | 121.71806 | 19981 ft | 418 kts | 160° |
| 2026-05-06 14:01 | 25.03105 | 121.73012 | 19988 ft | 418 kts | 160° |
| 2026-05-06 14:01 | 25.00427 | 121.74194 | 19995 ft | 418 kts | 160° |
| 2026-05-06 14:02 | 24.97710 | 121.75396 | 19995 ft | 419 kts | 160° |
| 2026-05-06 14:02 | 24.94982 | 121.76601 | 19994 ft | 419 kts | 160° |
| 2026-05-06 14:02 | 24.92270 | 121.77799 | 19992 ft | 419 kts | 160° |
| 2026-05-06 14:02 | 24.89560 | 121.78995 | 19985 ft | 419 kts | 159° |
| 2026-05-06 14:03 | 24.86846 | 121.80193 | 19983 ft | 418 kts | 159° |
| 2026-05-06 14:03 | 24.84159 | 121.81377 | 19980 ft | 419 kts | 159° |
| 2026-05-06 14:03 | 24.81408 | 121.82590 | 19974 ft | 419 kts | 159° |
| 2026-05-06 14:03 | 24.78735 | 121.83767 | 19973 ft | 419 kts | 159° |
| 2026-05-06 14:04 | 24.75997 | 121.84972 | 19969 ft | 418 kts | 159° |
| 2026-05-06 14:04 | 24.73313 | 121.86151 | 19970 ft | 418 kts | 159° |
| 2026-05-06 14:04 | 24.70589 | 121.87349 | 19976 ft | 418 kts | 159° |
| 2026-05-06 14:04 | 24.67891 | 121.88535 | 19976 ft | 419 kts | 159° |
| 2026-05-06 14:05 | 24.65198 | 121.89718 | 19979 ft | 419 kts | 159° |
| 2026-05-06 14:05 | 24.62485 | 121.90909 | 19979 ft | 418 kts | 159° |
| 2026-05-06 14:05 | 24.59775 | 121.92098 | 19982 ft | 419 kts | 159° |
| 2026-05-06 14:05 | 24.57056 | 121.93291 | 19979 ft | 419 kts | 159° |
| 2026-05-06 14:06 | 24.54306 | 121.94495 | 19977 ft | 420 kts | 159° |
| 2026-05-06 14:06 | 24.51622 | 121.95672 | 19976 ft | 420 kts | 159° |
| 2026-05-06 14:06 | 24.48905 | 121.96862 | 19973 ft | 421 kts | 159° |
| 2026-05-06 14:06 | 24.46168 | 121.98060 | 19971 ft | 420 kts | 159° |
| 2026-05-06 14:07 | 24.43449 | 121.99249 | 19969 ft | 419 kts | 159° |
| 2026-05-06 14:07 | 24.40723 | 122.00430 | 19971 ft | 419 kts | 161° |
| 2026-05-06 14:07 | 24.37970 | 122.01437 | 19967 ft | 418 kts | 166° |
| 2026-05-06 14:07 | 24.35080 | 122.01939 | 19964 ft | 416 kts | 179° |
| 2026-05-06 14:08 | 24.32230 | 122.01733 | 19966 ft | 414 kts | 191° |
| 2026-05-06 14:08 | 24.29412 | 122.01044 | 19969 ft | 413 kts | 196° |
| 2026-05-06 14:08 | 24.26635 | 122.00195 | 19967 ft | 412 kts | 198° |
| 2026-05-06 14:08 | 24.23908 | 121.99297 | 19971 ft | 412 kts | 199° |
| 2026-05-06 14:09 | 24.21126 | 121.98360 | 19970 ft | 412 kts | 199° |
| 2026-05-06 14:09 | 24.18412 | 121.97444 | 19971 ft | 412 kts | 199° |
| 2026-05-06 14:09 | 24.15645 | 121.96516 | 19971 ft | 413 kts | 199° |
| 2026-05-06 14:09 | 24.12884 | 121.95597 | 19967 ft | 413 kts | 198° |
| 2026-05-06 14:10 | 24.10158 | 121.94696 | 19965 ft | 412 kts | 198° |
| 2026-05-06 14:10 | 24.07382 | 121.93782 | 19967 ft | 412 kts | 198° |
| 2026-05-06 14:10 | 24.04655 | 121.92888 | 19970 ft | 412 kts | 198° |
| 2026-05-06 14:10 | 24.01882 | 121.91979 | 19965 ft | 413 kts | 198° |
| 2026-05-06 14:11 | 23.99113 | 121.91074 | 19967 ft | 412 kts | 198° |
| 2026-05-06 14:11 | 23.96362 | 121.90179 | 19972 ft | 412 kts | 198° |
| 2026-05-06 14:11 | 23.93609 | 121.89287 | 19966 ft | 412 kts | 198° |
| 2026-05-06 14:11 | 23.90845 | 121.88392 | 19975 ft | 412 kts | 198° |
| 2026-05-06 14:12 | 23.88097 | 121.87504 | 19976 ft | 412 kts | 198° |
| 2026-05-06 14:12 | 23.85349 | 121.86616 | 19974 ft | 412 kts | 198° |
| 2026-05-06 14:12 | 23.82595 | 121.85726 | 19965 ft | 412 kts | 198° |
| 2026-05-06 14:12 | 23.79850 | 121.84837 | 19966 ft | 412 kts | 198° |
| 2026-05-06 14:13 | 23.77081 | 121.83939 | 19982 ft | 412 kts | 198° |
| 2026-05-06 14:13 | 23.74319 | 121.83041 | 19978 ft | 413 kts | 198° |
| 2026-05-06 14:13 | 23.71594 | 121.82156 | 19974 ft | 413 kts | 198° |
| 2026-05-06 14:13 | 23.68803 | 121.81249 | 19978 ft | 412 kts | 198° |
| 2026-05-06 14:14 | 23.66071 | 121.80363 | 19983 ft | 412 kts | 198° |
| 2026-05-06 14:14 | 23.63323 | 121.79472 | 19988 ft | 412 kts | 198° |
| 2026-05-06 14:14 | 23.60578 | 121.78584 | 19995 ft | 412 kts | 198° |
| 2026-05-06 14:14 | 23.57809 | 121.77695 | 19993 ft | 412 kts | 198° |
| 2026-05-06 14:15 | 23.55047 | 121.76807 | 20003 ft | 412 kts | 198° |
| 2026-05-06 14:15 | 23.52301 | 121.75920 | 20011 ft | 412 kts | 198° |
| 2026-05-06 14:15 | 23.49546 | 121.75028 | 19998 ft | 412 kts | 198° |
| 2026-05-06 14:15 | 23.46784 | 121.74133 | 20004 ft | 412 kts | 198° |
| 2026-05-06 14:16 | 23.44062 | 121.73251 | 20004 ft | 412 kts | 198° |
| 2026-05-06 14:16 | 23.41287 | 121.72353 | 19999 ft | 413 kts | 198° |
| 2026-05-06 14:16 | 23.38537 | 121.71464 | 19992 ft | 413 kts | 198° |
| 2026-05-06 14:16 | 23.35794 | 121.70580 | 19994 ft | 402 kts | 198° |
| 2026-05-06 14:17 | 23.33156 | 121.69733 | 19922 ft | 388 kts | 198° |
| 2026-05-06 14:17 | 23.30613 | 121.68916 | 19584 ft | 380 kts | 198° |
| 2026-05-06 14:17 | 23.28076 | 121.68100 | 19114 ft | 377 kts | 198° |
| 2026-05-06 14:17 | 23.25557 | 121.67289 | 18565 ft | 376 kts | 198° |
| 2026-05-06 14:18 | 23.23052 | 121.66481 | 17996 ft | 375 kts | 198° |
| 2026-05-06 14:18 | 23.20549 | 121.65674 | 17417 ft | 374 kts | 198° |
| 2026-05-06 14:18 | 23.18071 | 121.64876 | 16854 ft | 373 kts | 198° |
| 2026-05-06 14:18 | 23.15566 | 121.64071 | 16274 ft | 372 kts | 198° |
| 2026-05-06 14:19 | 23.13093 | 121.63276 | 15722 ft | 370 kts | 198° |
| 2026-05-06 14:19 | 23.10630 | 121.62483 | 15162 ft | 369 kts | 198° |
| 2026-05-06 14:19 | 23.08184 | 121.61697 | 14574 ft | 367 kts | 198° |
| 2026-05-06 14:19 | 23.05721 | 121.60905 | 13982 ft | 365 kts | 198° |
| 2026-05-06 14:20 | 23.03293 | 121.60126 | 13441 ft | 363 kts | 199° |
| 2026-05-06 14:20 | 23.00896 | 121.59356 | 12870 ft | 360 kts | 198° |
| 2026-05-06 14:20 | 22.98487 | 121.58583 | 12342 ft | 358 kts | 198° |
| 2026-05-06 14:20 | 22.96093 | 121.57818 | 11734 ft | 356 kts | 198° |
| 2026-05-06 14:21 | 22.93723 | 121.57061 | 11167 ft | 354 kts | 198° |
| 2026-05-06 14:21 | 22.91373 | 121.56311 | 10671 ft | 350 kts | 198° |
| 2026-05-06 14:21 | 22.89074 | 121.55579 | 10397 ft | 332 kts | 198° |
| 2026-05-06 14:21 | 22.86941 | 121.54902 | 10311 ft | 306 kts | 198° |
| 2026-05-06 14:22 | 22.84967 | 121.54274 | 10200 ft | 285 kts | 198° |
| 2026-05-06 14:22 | 22.83108 | 121.53680 | 9974 ft | 278 kts | 198° |
| 2026-05-06 14:22 | 22.81247 | 121.53082 | 9587 ft | 278 kts | 198° |
| 2026-05-06 14:22 | 22.79386 | 121.52485 | 9220 ft | 277 kts | 198° |
| 2026-05-06 14:23 | 22.77523 | 121.51891 | 8879 ft | 275 kts | 198° |
| 2026-05-06 14:23 | 22.75689 | 121.51308 | 8535 ft | 274 kts | 198° |
| 2026-05-06 14:23 | 22.73879 | 121.50732 | 8218 ft | 271 kts | 198° |
| 2026-05-06 14:23 | 22.72085 | 121.50159 | 8085 ft | 261 kts | 198° |
| 2026-05-06 14:24 | 22.70373 | 121.49611 | 8004 ft | 250 kts | 198° |
| 2026-05-06 14:24 | 22.68741 | 121.49059 | 7917 ft | 244 kts | 202° |
| 2026-05-06 14:24 | 22.67271 | 121.48182 | 7805 ft | 239 kts | 225° |
| 2026-05-06 14:24 | 22.66364 | 121.46702 | 7576 ft | 234 kts | 249° |
| 2026-05-06 14:25 | 22.65837 | 121.45064 | 7329 ft | 233 kts | 252° |
| 2026-05-06 14:25 | 22.65315 | 121.43411 | 7065 ft | 232 kts | 251° |
| 2026-05-06 14:25 | 22.64747 | 121.41773 | 6810 ft | 232 kts | 249° |
| 2026-05-06 14:25 | 22.64153 | 121.40139 | 6565 ft | 231 kts | 249° |
| 2026-05-06 14:26 | 22.63562 | 121.38528 | 6345 ft | 230 kts | 249° |
| 2026-05-06 14:26 | 22.62976 | 121.36926 | 6086 ft | 229 kts | 249° |
| 2026-05-06 14:26 | 22.62393 | 121.35331 | 5852 ft | 227 kts | 249° |
| 2026-05-06 14:26 | 22.61811 | 121.33738 | 5590 ft | 228 kts | 249° |
| 2026-05-06 14:27 | 22.61230 | 121.32146 | 5366 ft | 228 kts | 249° |
| 2026-05-06 14:27 | 22.60650 | 121.30559 | 5121 ft | 228 kts | 249° |
| 2026-05-06 14:27 | 22.60065 | 121.28958 | 4861 ft | 228 kts | 249° |
| 2026-05-06 14:27 | 22.59486 | 121.27372 | 4629 ft | 227 kts | 249° |
| 2026-05-06 14:28 | 22.58901 | 121.25764 | 4399 ft | 228 kts | 249° |
| 2026-05-06 14:28 | 22.58322 | 121.24178 | 4154 ft | 228 kts | 249° |
| 2026-05-06 14:28 | 22.57735 | 121.22575 | 3899 ft | 228 kts | 249° |
| 2026-05-06 14:28 | 22.57151 | 121.20983 | 3653 ft | 226 kts | 249° |
| 2026-05-06 14:29 | 22.56571 | 121.19402 | 3410 ft | 227 kts | 250° |
| 2026-05-06 14:29 | 22.56159 | 121.17777 | 3264 ft | 223 kts | 266° |
| 2026-05-06 14:29 | 22.56418 | 121.16148 | 3122 ft | 223 kts | 302° |
| 2026-05-06 14:29 | 22.57435 | 121.14967 | 2984 ft | 213 kts | 325° |
| 2026-05-06 14:30 | 22.58635 | 121.14055 | 2806 ft | 207 kts | 326° |
| 2026-05-06 14:30 | 22.59795 | 121.13143 | 2565 ft | 200 kts | 324° |
| 2026-05-06 14:30 | 22.60855 | 121.12282 | 2402 ft | 183 kts | 324° |
| 2026-05-06 14:30 | 22.61852 | 121.11471 | 2264 ft | 175 kts | 324° |
| 2026-05-06 14:31 | 22.62869 | 121.10766 | 2146 ft | 171 kts | 340° |
| 2026-05-06 14:31 | 22.64028 | 121.10513 | 2149 ft | 170 kts | 355° |
| 2026-05-06 14:31 | 22.65199 | 121.10374 | 2143 ft | 170 kts | 353° |
| 2026-05-06 14:31 | 22.66389 | 121.10186 | 2135 ft | 170 kts | 353° |
| 2026-05-06 14:32 | 22.67576 | 121.09985 | 1909 ft | 177 kts | 349° |
| 2026-05-06 14:32 | 22.68716 | 121.09606 | 1926 ft | 161 kts | 340° |
| 2026-05-06 14:32 | 22.69784 | 121.09240 | 1725 ft | 158 kts | 345° |
| 2026-05-06 14:32 | 22.70816 | 121.08896 | 1531 ft | 155 kts | 343° |
| 2026-05-06 14:33 | 22.71810 | 121.08408 | 1273 ft | 157 kts | 332° |
| 2026-05-06 14:33 | 22.72764 | 121.07868 | 1089 ft | 149 kts | 352° |
| 2026-05-06 14:33 | 22.73713 | 121.08133 | 925 ft | 150 kts | 41° |
| 2026-05-06 14:33 | 22.74361 | 121.09083 | 508 ft | 161 kts | 54° |
| 2026-05-06 14:34 | 22.75174 | 121.09889 | 189 ft | 153 kts | 40° |
| 2026-05-06 14:34 | 22.75848 | 121.10477 | 164 ft | 86 kts | 38° |
| 2026-05-06 14:34 | 22.76195 | 121.10774 | 161 ft | 56 kts | 39° |
| 2026-05-06 14:34 | 22.76350 | 121.10871 | 161 ft | 0 kts | 309° |
| 2026-05-06 14:35 | 22.76365 | 121.10850 | 161 ft | 9 kts | 303° |
| 2026-05-06 14:35 | 22.76367 | 121.10787 | 162 ft | 7 kts | 245° |
| 2026-05-06 14:35 | 22.76302 | 121.10712 | 163 ft | 16 kts | 216° |
| 2026-05-06 14:35 | 22.76216 | 121.10637 | 164 ft | 15 kts | 219° |
| 2026-05-06 14:36 | 22.76138 | 121.10569 | 165 ft | 13 kts | 219° |
| 2026-05-06 14:36 | 22.76067 | 121.10508 | 167 ft | 11 kts | 219° |
| 2026-05-06 14:36 | 22.76010 | 121.10463 | 168 ft | 8 kts | 216° |
| 2026-05-06 14:36 | 22.75953 | 121.10411 | 169 ft | 15 kts | 221° |
| 2026-05-06 14:37 | 22.75882 | 121.10356 | 169 ft | 9 kts | 189° |
| 2026-05-06 14:37 | 22.75795 | 121.10422 | 166 ft | 20 kts | 129° |
| 2026-05-06 14:37 | 22.75713 | 121.10542 | 161 ft | 15 kts | 107° |
| 2026-05-06 14:37 | 22.75762 | 121.10626 | 159 ft | 8 kts | 48° |
| 2026-05-06 14:38 | 22.75762 | 121.10661 | 159 ft | 6 kts | 99° |
| 2026-05-06 14:38 | 22.75750 | 121.10689 | 158 ft | 0 kts | 127° |
| 2026-05-06 14:38 | 22.75747 | 121.10693 | 158 ft | 0 kts | 129° |